createdAt,value
2023-03-22T00:01:22.008Z,100037.13
2023-03-22T00:03:49.940Z,100036.16
2023-03-22T00:06:16.793Z,100032.53
2023-03-22T00:08:44.498Z,100038.56
2023-03-22T00:11:12.476Z,100037.91
2023-03-22T00:13:39.641Z,100029.63
2023-03-22T00:16:06.829Z,100035.63
2023-03-22T00:18:33.571Z,100024.34
2023-03-22T00:21:00.281Z,100025.25
2023-03-22T00:23:28.210Z,100024.44
2023-03-22T00:25:55.519Z,100024.31
2023-03-22T00:28:23.015Z,100026.78
2023-03-22T00:31:01.130Z,100025.41
2023-03-22T00:33:29.462Z,100018.63
2023-03-22T00:36:02.144Z,100016.81
2023-03-22T00:38:41.367Z,100019.50
2023-03-22T00:41:10.210Z,100013.28
2023-03-22T00:43:37.737Z,100019.22
2023-03-22T00:46:05.507Z,100011.56
2023-03-22T00:48:32.211Z,100014.16
2023-03-22T00:50:58.868Z,100020.38
2023-03-22T00:53:25.641Z,100009.28
2023-03-22T00:55:52.427Z,100014.75
2023-03-22T00:58:19.131Z,100017.31
2023-03-22T01:00:45.826Z,100017.41
2023-03-22T01:03:12.538Z,100023.59
2023-03-22T01:05:39.133Z,100021.13
2023-03-22T01:08:06.395Z,100023.69
2023-03-22T01:10:33.058Z,100017.41
2023-03-22T01:12:59.806Z,100020.97
2023-03-22T01:15:26.630Z,100014.91
2023-03-22T01:17:53.305Z,100022.56
2023-03-22T01:20:20.094Z,100021.03
2023-03-22T01:22:47.214Z,100014.78
2023-03-22T01:25:13.822Z,100021.72
2023-03-22T01:27:40.497Z,100020.94
2023-03-22T01:30:08.515Z,100015.03
2023-03-22T01:32:36.242Z,100011.63
2023-03-22T01:35:04.960Z,100010.25
2023-03-22T01:37:31.828Z,100004.41
2023-03-22T01:40:00.301Z,100000.31
2023-03-22T01:42:27.722Z,100001.28
2023-03-22T01:45:16.106Z,99993.03
2023-03-22T01:47:55.313Z,99988.81
2023-03-22T01:50:23.558Z,99991.78
2023-03-22T01:52:52.587Z,99991.03
2023-03-22T01:55:21.283Z,99989.00
2023-03-22T01:57:48.334Z,99987.31
2023-03-22T02:00:15.369Z,99989.69
2023-03-22T02:02:48.613Z,99995.56
2023-03-22T02:05:16.229Z,99997.13
2023-03-22T02:07:44.415Z,100003.84
2023-03-22T02:10:12.749Z,100004.63
2023-03-22T02:13:10.082Z,100012.31
2023-03-22T02:15:51.192Z,100016.84
2023-03-22T02:18:52.981Z,100020.72
2023-03-22T02:21:48.272Z,100023.50
2023-03-22T02:24:14.984Z,100019.03
2023-03-22T02:26:53.935Z,100012.81
2023-03-22T02:30:05.777Z,100013.72
2023-03-22T02:33:02.260Z,100014.66
2023-03-22T02:35:47.580Z,100016.25
2023-03-22T02:38:49.673Z,100016.44
2023-03-22T02:41:30.899Z,100025.00
2023-03-22T02:44:18.698Z,100027.00
2023-03-22T02:47:12.939Z,100027.13
2023-03-22T02:49:51.529Z,100025.44
2023-03-22T02:52:39.233Z,100030.69
2023-03-22T02:55:24.765Z,100031.50
2023-03-22T02:58:01.243Z,100028.03
2023-03-22T03:00:29.237Z,100030.69
2023-03-22T03:03:01.298Z,100032.31
2023-03-22T03:05:32.075Z,100036.81
2023-03-22T03:08:02.306Z,100038.53
2023-03-22T03:10:29.339Z,100028.97
2023-03-22T03:12:56.011Z,100032.28
2023-03-22T03:15:22.966Z,100035.94
2023-03-22T03:18:17.331Z,100043.13
2023-03-22T03:21:02.798Z,100035.31
2023-03-22T03:23:49.865Z,100037.22
2023-03-22T03:26:25.465Z,100037.09
2023-03-22T03:28:57.756Z,100029.31
2023-03-22T03:31:43.231Z,100026.78
2023-03-22T03:34:15.631Z,100024.78
2023-03-22T03:36:49.242Z,100029.88
2023-03-22T03:39:18.915Z,100019.59
2023-03-22T03:41:48.871Z,100022.94
2023-03-22T03:44:17.059Z,100023.00
2023-03-22T03:46:46.208Z,100024.66
2023-03-22T03:49:15.023Z,100030.03
2023-03-22T03:51:51.819Z,100032.81
2023-03-22T03:54:19.070Z,100034.50
2023-03-22T03:56:46.723Z,100033.38
2023-03-22T03:59:17.046Z,100035.41
2023-03-22T04:01:45.374Z,100035.09
2023-03-22T04:04:12.006Z,100037.00
2023-03-22T04:06:38.608Z,100036.22
2023-03-22T04:09:05.302Z,100047.25
2023-03-22T04:11:31.908Z,100044.53
2023-03-22T04:13:58.566Z,100037.63
2023-03-22T04:16:25.297Z,100044.88
2023-03-22T04:18:52.027Z,100040.34
2023-03-22T04:21:18.780Z,100041.22
2023-03-22T04:23:45.525Z,100043.53
2023-03-22T04:26:12.568Z,100046.94
2023-03-22T04:28:39.265Z,100047.75
2023-03-22T04:31:06.174Z,100043.19
2023-03-22T04:33:33.082Z,100040.91
2023-03-22T04:35:59.715Z,100026.91
2023-03-22T04:38:26.311Z,100038.97
2023-03-22T04:40:52.952Z,100044.22
2023-03-22T04:43:19.588Z,100048.25
2023-03-22T04:45:46.295Z,100051.78
2023-03-22T04:48:13.295Z,100050.16
2023-03-22T04:50:40.591Z,100063.50
2023-03-22T04:53:07.431Z,100067.31
2023-03-22T04:55:34.094Z,100062.94
2023-03-22T04:58:00.871Z,100068.97
2023-03-22T05:00:27.581Z,100063.63
2023-03-22T05:02:54.242Z,100059.38
2023-03-22T05:05:20.917Z,100062.69
2023-03-22T05:07:47.570Z,100068.78
2023-03-22T05:10:14.203Z,100068.97
2023-03-22T05:12:40.842Z,100069.75
2023-03-22T05:15:08.416Z,100068.09
2023-03-22T05:17:35.056Z,100069.72
2023-03-22T05:20:01.657Z,100070.47
2023-03-22T05:22:28.284Z,100071.53
2023-03-22T05:24:54.890Z,100070.75
2023-03-22T05:27:21.638Z,100072.53
2023-03-22T05:29:48.265Z,100077.75
2023-03-22T05:32:14.919Z,100095.19
2023-03-22T05:34:41.583Z,100091.53
2023-03-22T05:37:08.423Z,100100.31
2023-03-22T05:39:35.109Z,100089.00
2023-03-22T05:42:01.727Z,100089.72
2023-03-22T05:44:28.444Z,100086.91
2023-03-22T05:46:55.298Z,100104.28
2023-03-22T05:49:22.051Z,100096.47
2023-03-22T05:51:48.680Z,100102.44
2023-03-22T05:54:15.327Z,100115.38
2023-03-22T05:56:41.943Z,100115.50
2023-03-22T05:59:08.623Z,100114.16
2023-03-22T06:01:35.315Z,100117.00
2023-03-22T06:04:01.964Z,100121.25
2023-03-22T06:06:28.867Z,100114.38
2023-03-22T06:09:07.040Z,100119.50
2023-03-22T06:11:41.088Z,100125.50
2023-03-22T06:14:07.731Z,100129.00
2023-03-22T06:16:34.556Z,100123.81
2023-03-22T06:19:01.204Z,100126.09
2023-03-22T06:21:27.876Z,100120.41
2023-03-22T06:23:54.616Z,100132.19
2023-03-22T06:26:21.320Z,100125.13
2023-03-22T06:28:47.996Z,100129.75
2023-03-22T06:31:14.732Z,100133.84
2023-03-22T06:33:41.437Z,100135.84
2023-03-22T06:36:08.335Z,100128.78
2023-03-22T06:38:34.955Z,100119.00
2023-03-22T06:41:01.615Z,100130.66
2023-03-22T06:43:28.277Z,100134.75
2023-03-22T06:45:55.075Z,100131.06
2023-03-22T06:48:21.802Z,100130.03
2023-03-22T06:50:48.661Z,100136.50
2023-03-22T06:53:15.455Z,100133.63
2023-03-22T06:55:42.085Z,100132.19
2023-03-22T06:58:08.709Z,100121.31
2023-03-22T07:00:35.383Z,100129.88
2023-03-22T07:03:02.230Z,100130.06
2023-03-22T07:05:28.981Z,100137.22
2023-03-22T07:07:55.635Z,100135.63
2023-03-22T07:10:22.392Z,100144.97
2023-03-22T07:12:49.121Z,100151.06
2023-03-22T07:15:15.840Z,100140.56
2023-03-22T07:17:42.481Z,100145.75
2023-03-22T07:20:09.587Z,100143.81
2023-03-22T07:22:36.283Z,100142.28
2023-03-22T07:25:03.075Z,100144.03
2023-03-22T07:27:29.702Z,100136.84
2023-03-22T07:29:56.348Z,100139.03
2023-03-22T07:32:23.018Z,100143.22
2023-03-22T07:34:49.629Z,100148.53
2023-03-22T07:37:16.258Z,100161.06
2023-03-22T07:39:42.922Z,100155.72
2023-03-22T07:42:09.594Z,100156.25
2023-03-22T07:44:36.425Z,100152.91
2023-03-22T07:47:03.237Z,100158.22
2023-03-22T07:49:30.479Z,100164.44
2023-03-22T07:51:58.095Z,100153.75
2023-03-22T07:54:33.544Z,100153.06
2023-03-22T07:57:01.742Z,100140.03
2023-03-22T07:59:28.957Z,100144.78
2023-03-22T08:01:55.759Z,100139.69
2023-03-22T08:04:22.804Z,100140.84
2023-03-22T08:06:49.502Z,100144.53
2023-03-22T08:09:16.160Z,100141.75
2023-03-22T08:11:42.864Z,100142.75
2023-03-22T08:14:10.077Z,100142.63
2023-03-22T08:16:36.735Z,100141.25
2023-03-22T08:19:03.456Z,100139.22
2023-03-22T08:21:30.100Z,100135.59
2023-03-22T08:23:56.753Z,100131.59
2023-03-22T08:26:23.445Z,100123.81
2023-03-22T08:28:50.110Z,100130.16
2023-03-22T08:31:17.633Z,100139.72
2023-03-22T08:33:45.123Z,100131.16
2023-03-22T08:36:15.765Z,100140.72
2023-03-22T08:38:42.467Z,100129.75
2023-03-22T08:41:09.232Z,100129.47
2023-03-22T08:43:35.874Z,100138.03
2023-03-22T08:46:03.370Z,100140.06
2023-03-22T08:48:30.015Z,100143.94
2023-03-22T08:50:57.549Z,100148.34
2023-03-22T08:53:24.536Z,100154.13
2023-03-22T08:55:51.202Z,100160.38
2023-03-22T08:58:17.949Z,100153.41
2023-03-22T09:00:48.910Z,100152.44
2023-03-22T09:03:15.954Z,100158.31
2023-03-22T09:05:42.597Z,100156.44
2023-03-22T09:08:18.131Z,100147.94
2023-03-22T09:10:49.905Z,100150.81
2023-03-22T09:13:16.853Z,100151.16
2023-03-22T09:15:44.580Z,100152.59
2023-03-22T09:18:11.470Z,100158.19
2023-03-22T09:20:38.615Z,100148.72
2023-03-22T09:23:05.938Z,100142.94
2023-03-22T09:25:33.137Z,100154.94
2023-03-22T09:27:59.752Z,100156.19
2023-03-22T09:30:26.991Z,100152.28
2023-03-22T09:32:53.780Z,100153.72
2023-03-22T09:35:20.486Z,100146.13
2023-03-22T09:37:47.336Z,100139.38
2023-03-22T09:40:14.036Z,100132.91
2023-03-22T09:42:47.581Z,100129.81
2023-03-22T09:45:19.319Z,100128.84
2023-03-22T09:47:50.213Z,100131.66
2023-03-22T09:50:21.673Z,100133.75
2023-03-22T09:52:48.790Z,100127.44
2023-03-22T09:55:18.600Z,100129.22
2023-03-22T09:57:52.332Z,100126.19
2023-03-22T10:00:28.992Z,100117.22
2023-03-22T10:03:31.708Z,100119.84
2023-03-22T10:05:58.235Z,100131.72
2023-03-22T10:08:35.163Z,100117.84
2023-03-22T10:11:01.935Z,100125.06
2023-03-22T10:13:46.035Z,100124.97
2023-03-22T10:16:23.885Z,100122.25
2023-03-22T10:18:52.963Z,100126.13
2023-03-22T10:21:21.036Z,100121.16
2023-03-22T10:23:54.379Z,100118.38
2023-03-22T10:26:31.928Z,100116.41
2023-03-22T10:29:09.464Z,100122.69
2023-03-22T10:31:36.236Z,100112.00
2023-03-22T10:34:12.219Z,100111.66
2023-03-22T10:36:41.363Z,100116.31
2023-03-22T10:39:31.633Z,100124.38
2023-03-22T10:42:02.849Z,100121.47
2023-03-22T10:44:32.516Z,100115.25
2023-03-22T10:47:02.413Z,100111.22
2023-03-22T10:49:35.677Z,100113.31
2023-03-22T10:52:06.551Z,100120.09
2023-03-22T10:54:33.321Z,100111.16
2023-03-22T10:56:59.909Z,100110.03
2023-03-22T10:59:45.129Z,100115.28
2023-03-22T11:02:27.373Z,100107.06
2023-03-22T11:05:05.396Z,100113.09
2023-03-22T11:07:36.490Z,100101.81
2023-03-22T11:10:08.867Z,100097.56
2023-03-22T11:12:39.532Z,100105.03
2023-03-22T11:15:20.200Z,100100.09
2023-03-22T11:17:46.849Z,100098.56
2023-03-22T11:20:17.935Z,100091.03
2023-03-22T11:22:47.497Z,100093.03
2023-03-22T11:25:22.709Z,100083.69
2023-03-22T11:28:06.814Z,100080.25
2023-03-22T11:30:34.811Z,100084.72
2023-03-22T11:33:21.851Z,100072.69
2023-03-22T11:35:56.047Z,100075.16
2023-03-22T11:38:35.726Z,100075.28
2023-03-22T11:41:08.201Z,100081.28
2023-03-22T11:43:41.336Z,100070.97
2023-03-22T11:46:09.528Z,100070.16
2023-03-22T11:48:37.310Z,100062.94
2023-03-22T11:51:09.825Z,100057.81
2023-03-22T11:53:40.142Z,100058.34
2023-03-22T11:56:10.419Z,100061.28
2023-03-22T11:58:39.730Z,100058.78
2023-03-22T12:01:13.891Z,100065.56
2023-03-22T12:03:43.309Z,100061.13
2023-03-22T12:06:24.803Z,100065.63
2023-03-22T12:08:58.715Z,100063.53
2023-03-22T12:11:40.806Z,100063.59
2023-03-22T12:14:07.379Z,100067.28
2023-03-22T12:16:55.115Z,100065.44
2023-03-22T12:19:24.720Z,100069.31
2023-03-22T12:21:51.870Z,100071.44
2023-03-22T12:24:25.243Z,100068.94
2023-03-22T12:26:56.359Z,100069.25
2023-03-22T12:29:24.030Z,100073.97
2023-03-22T12:32:27.091Z,100070.31
2023-03-22T12:35:01.334Z,100068.38
2023-03-22T12:37:38.649Z,100055.97
2023-03-22T12:40:43.676Z,100064.38
2023-03-22T12:43:18.965Z,100060.88
2023-03-22T12:45:51.104Z,100061.59
2023-03-22T12:48:46.352Z,100063.19
2023-03-22T12:51:14.756Z,100063.28
2023-03-22T12:53:49.267Z,100051.38
2023-03-22T12:56:19.144Z,100049.94
2023-03-22T12:58:50.961Z,100042.31
2023-03-22T13:01:23.583Z,100043.00
2023-03-22T13:03:53.554Z,100038.13
2023-03-22T13:06:42.269Z,100039.59
2023-03-22T13:09:14.954Z,100042.75
2023-03-22T13:11:47.926Z,100040.16
2023-03-22T13:14:52.592Z,100036.84
2023-03-22T13:17:25.523Z,100032.78
2023-03-22T13:20:00.912Z,100035.81
2023-03-22T13:22:39.228Z,100025.16
2023-03-22T13:25:12.168Z,100023.25
2023-03-22T13:27:55.200Z,100026.78
2023-03-22T13:30:21.803Z,100019.44
2023-03-22T13:32:56.313Z,100018.88
2023-03-22T13:35:48.868Z,100019.41
2023-03-22T13:38:22.805Z,100008.38
2023-03-22T13:40:58.428Z,100017.47
2023-03-22T13:43:45.693Z,100022.31
2023-03-22T13:46:18.205Z,100021.72
2023-03-22T13:48:48.262Z,100015.28
2023-03-22T13:51:21.435Z,100016.69
2023-03-22T13:54:08.218Z,100004.72
2023-03-22T13:56:40.844Z,99988.97
2023-03-22T13:59:27.794Z,99992.97
2023-03-22T14:02:20.454Z,99992.25
2023-03-22T14:04:57.340Z,99993.31
2023-03-22T14:07:37.711Z,99989.66
2023-03-22T14:11:05.818Z,99979.72
2023-03-22T14:13:43.980Z,99983.81
2023-03-22T14:16:28.531Z,99977.75
2023-03-22T14:18:56.371Z,99974.41
2023-03-22T14:21:37.822Z,99973.28
